<?xml version="1.0" encoding="UTF-8" standalone="yes"?>
<gpx
 xmlns="http://www.topografix.com/GPX/1/1"
 creator="OziExplorer Version 3956f - http://www.oziexplorer.com"
 version="1.1"
 xmlns:xsi="http://www.w3.org/2001/XMLSchema-instance"
 xsi:schemaLocation="http://www.topografix.com/GPX/1/1 http://www.topografix.com/GPX/1/1/gpx.xsd">
<metadata>
 <time>2018-05-17T05:32:08Z</time>
 <bounds minlat="31.803640" minlon="34.993470" maxlat="31.845830" maxlon="35.078819"/>
</metadata>
<trk>
 <name>Canada-NeveIlan_New1,28km</name>
 <desc>Canada-NeveIlan_New1,28km</desc>
<trkseg>
<trkpt lat="31.8419420" lon="34.9936690">
<ele>244.000015</ele>
<time>2010-01-01T00:00:00.000Z</time>
</trkpt>
<trkpt lat="31.8417200" lon="34.9936880">
<ele>248.000000</ele>
<time>2010-01-01T00:00:05.000Z</time>
</trkpt>
<trkpt lat="31.8415850" lon="34.9936020">
<ele>249.000000</ele>
<time>2010-01-01T00:00:10.000Z</time>
</trkpt>
<trkpt lat="31.8412800" lon="34.9941750">
<ele>254.000000</ele>
<time>2010-01-01T00:00:25.000Z</time>
</trkpt>
<trkpt lat="31.8411580" lon="34.9954950">
<ele>254.000000</ele>
<time>2010-01-01T00:00:55.000Z</time>
</trkpt>
<trkpt lat="31.8412030" lon="34.9961920">
<ele>253.000000</ele>
<time>2010-01-01T00:01:11.000Z</time>
</trkpt>
<trkpt lat="31.8410210" lon="34.9966960">
<ele>254.000000</ele>
<time>2010-01-01T00:01:23.000Z</time>
</trkpt>
<trkpt lat="31.8414110" lon="34.9982630">
<ele>255.000000</ele>
<time>2010-01-01T00:02:00.000Z</time>
</trkpt>
<trkpt lat="31.8413220" lon="34.9990570">
<ele>261.000000</ele>
<time>2010-01-01T00:02:18.000Z</time>
</trkpt>
<trkpt lat="31.8414130" lon="34.9991530">
<ele>259.000000</ele>
<time>2010-01-01T00:02:22.000Z</time>
</trkpt>
<trkpt lat="31.8413400" lon="34.9995610">
<ele>261.000000</ele>
<time>2010-01-01T00:02:31.000Z</time>
</trkpt>
<trkpt lat="31.8411030" lon="34.9998510">
<ele>263.000000</ele>
<time>2010-01-01T00:02:40.000Z</time>
</trkpt>
<trkpt lat="31.8409560" lon="35.0002580">
<ele>264.000000</ele>
<time>2010-01-01T00:02:50.000Z</time>
</trkpt>
<trkpt lat="31.8407510" lon="35.0003120">
<ele>266.000000</ele>
<time>2010-01-01T00:02:56.000Z</time>
</trkpt>
<trkpt lat="31.8400350" lon="35.0001620">
<ele>273.000000</ele>
<time>2010-01-01T00:03:15.000Z</time>
</trkpt>
<trkpt lat="31.8399360" lon="35.0002580">
<ele>275.000000</ele>
<time>2010-01-01T00:03:19.000Z</time>
</trkpt>
<trkpt lat="31.8397080" lon="35.0008590">
<ele>277.000000</ele>
<time>2010-01-01T00:03:34.000Z</time>
</trkpt>
<trkpt lat="31.8396630" lon="35.0011380">
<ele>275.000000</ele>
<time>2010-01-01T00:03:40.000Z</time>
</trkpt>
<trkpt lat="31.8395900" lon="35.0012670">
<ele>275.000000</ele>
<time>2010-01-01T00:03:44.000Z</time>
</trkpt>
<trkpt lat="31.8394970" lon="35.0013100">
<ele>276.000000</ele>
<time>2010-01-01T00:03:46.000Z</time>
</trkpt>
<trkpt lat="31.8387410" lon="35.0028650">
<ele>286.000000</ele>
<time>2010-01-01T00:04:27.000Z</time>
</trkpt>
<trkpt lat="31.8388320" lon="35.0032520">
<ele>283.000000</ele>
<time>2010-01-01T00:04:36.000Z</time>
</trkpt>
<trkpt lat="31.8385570" lon="35.0044320">
<ele>291.000000</ele>
<time>2010-01-01T00:05:04.000Z</time>
</trkpt>
<trkpt lat="31.8387880" lon="35.0061160">
<ele>308.000000</ele>
<time>2010-01-01T00:05:42.000Z</time>
</trkpt>
<trkpt lat="31.8385640" lon="35.0064060">
<ele>311.000000</ele>
<time>2010-01-01T00:05:51.000Z</time>
</trkpt>
<trkpt lat="31.8384550" lon="35.0067280">
<ele>316.000000</ele>
<time>2010-01-01T00:05:59.000Z</time>
</trkpt>
<trkpt lat="31.8385370" lon="35.0068780">
<ele>317.000000</ele>
<time>2010-01-01T00:06:03.000Z</time>
</trkpt>
<trkpt lat="31.8386420" lon="35.0068670">
<ele>317.000000</ele>
<time>2010-01-01T00:06:06.000Z</time>
</trkpt>
<trkpt lat="31.8389610" lon="35.0064810">
<ele>316.000000</ele>
<time>2010-01-01T00:06:18.000Z</time>
</trkpt>
<trkpt lat="31.8388240" lon="35.0067490">
<ele>317.000000</ele>
<time>2010-01-01T00:06:25.000Z</time>
</trkpt>
<trkpt lat="31.8385140" lon="35.0077040">
<ele>326.999969</ele>
<time>2010-01-01T00:06:48.000Z</time>
</trkpt>
<trkpt lat="31.8379920" lon="35.0097320">
<ele>342.000000</ele>
<time>2010-01-01T00:07:37.000Z</time>
</trkpt>
<trkpt lat="31.8378670" lon="35.0104830">
<ele>346.000031</ele>
<time>2010-01-01T00:07:54.000Z</time>
</trkpt>
<trkpt lat="31.8378640" lon="35.0113840">
<ele>351.000000</ele>
<time>2010-01-01T00:08:14.000Z</time>
</trkpt>
<trkpt lat="31.8378030" lon="35.0114700">
<ele>351.000000</ele>
<time>2010-01-01T00:08:17.000Z</time>
</trkpt>
<trkpt lat="31.8377090" lon="35.0114700">
<ele>351.000000</ele>
<time>2010-01-01T00:08:19.000Z</time>
</trkpt>
<trkpt lat="31.8375290" lon="35.0112230">
<ele>350.000000</ele>
<time>2010-01-01T00:08:27.000Z</time>
</trkpt>
<trkpt lat="31.8374840" lon="35.0109550">
<ele>350.000000</ele>
<time>2010-01-01T00:08:33.000Z</time>
</trkpt>
<trkpt lat="31.8373650" lon="35.0107620">
<ele>349.000031</ele>
<time>2010-01-01T00:08:38.000Z</time>
</trkpt>
<trkpt lat="31.8377390" lon="35.0150750">
<ele>370.000000</ele>
<time>2010-01-01T00:10:17.000Z</time>
</trkpt>
<trkpt lat="31.8377150" lon="35.0158200">
<ele>375.000000</ele>
<time>2010-01-01T00:10:34.000Z</time>
</trkpt>
<trkpt lat="31.8374060" lon="35.0165360">
<ele>380.000000</ele>
<time>2010-01-01T00:10:52.000Z</time>
</trkpt>
<trkpt lat="31.8368960" lon="35.0171740">
<ele>381.000000</ele>
<time>2010-01-01T00:11:12.000Z</time>
</trkpt>
<trkpt lat="31.8361760" lon="35.0178100">
<ele>380.000000</ele>
<time>2010-01-01T00:11:36.000Z</time>
</trkpt>
<trkpt lat="31.8360010" lon="35.0182000">
<ele>381.000000</ele>
<time>2010-01-01T00:11:46.000Z</time>
</trkpt>
<trkpt lat="31.8357850" lon="35.0191230">
<ele>379.000000</ele>
<time>2010-01-01T00:12:07.000Z</time>
</trkpt>
<trkpt lat="31.8355230" lon="35.0195640">
<ele>381.000000</ele>
<time>2010-01-01T00:12:20.000Z</time>
</trkpt>
<trkpt lat="31.8352340" lon="35.0198300">
<ele>384.000000</ele>
<time>2010-01-01T00:12:29.000Z</time>
</trkpt>
<trkpt lat="31.8345340" lon="35.0202220">
<ele>392.000000</ele>
<time>2010-01-01T00:12:50.000Z</time>
</trkpt>
<trkpt lat="31.8341200" lon="35.0208290">
<ele>397.000000</ele>
<time>2010-01-01T00:13:08.000Z</time>
</trkpt>
<trkpt lat="31.8339310" lon="35.0212730">
<ele>392.000000</ele>
<time>2010-01-01T00:13:19.000Z</time>
</trkpt>
<trkpt lat="31.8336650" lon="35.0231830">
<ele>393.000000</ele>
<time>2010-01-01T00:14:03.000Z</time>
</trkpt>
<trkpt lat="31.8334880" lon="35.0234550">
<ele>392.000000</ele>
<time>2010-01-01T00:14:11.000Z</time>
</trkpt>
<trkpt lat="31.8331980" lon="35.0234130">
<ele>390.000000</ele>
<time>2010-01-01T00:14:18.000Z</time>
</trkpt>
<trkpt lat="31.8330020" lon="35.0231510">
<ele>389.000000</ele>
<time>2010-01-01T00:14:26.000Z</time>
</trkpt>
<trkpt lat="31.8328990" lon="35.0227390">
<ele>386.000000</ele>
<time>2010-01-01T00:14:36.000Z</time>
</trkpt>
<trkpt lat="31.8329390" lon="35.0219260">
<ele>376.000000</ele>
<time>2010-01-01T00:14:54.000Z</time>
</trkpt>
<trkpt lat="31.8327620" lon="35.0212560">
<ele>368.000000</ele>
<time>2010-01-01T00:15:10.000Z</time>
</trkpt>
<trkpt lat="31.8326430" lon="35.0212100">
<ele>366.000000</ele>
<time>2010-01-01T00:15:14.000Z</time>
</trkpt>
<trkpt lat="31.8325650" lon="35.0210350">
<ele>364.000000</ele>
<time>2010-01-01T00:15:18.000Z</time>
</trkpt>
<trkpt lat="31.8320720" lon="35.0204820">
<ele>359.000000</ele>
<time>2010-01-01T00:15:36.000Z</time>
</trkpt>
<trkpt lat="31.8312180" lon="35.0197600">
<ele>342.000000</ele>
<time>2010-01-01T00:16:04.000Z</time>
</trkpt>
<trkpt lat="31.8307110" lon="35.0194570">
<ele>334.000000</ele>
<time>2010-01-01T00:16:20.000Z</time>
</trkpt>
<trkpt lat="31.8304220" lon="35.0193830">
<ele>330.000000</ele>
<time>2010-01-01T00:16:27.000Z</time>
</trkpt>
<trkpt lat="31.8295710" lon="35.0194450">
<ele>319.000000</ele>
<time>2010-01-01T00:16:50.000Z</time>
</trkpt>
<trkpt lat="31.8285450" lon="35.0193310">
<ele>311.000000</ele>
<time>2010-01-01T00:17:18.000Z</time>
</trkpt>
<trkpt lat="31.8282970" lon="35.0195350">
<ele>310.000000</ele>
<time>2010-01-01T00:17:26.000Z</time>
</trkpt>
<trkpt lat="31.8281820" lon="35.0197320">
<ele>312.999969</ele>
<time>2010-01-01T00:17:31.000Z</time>
</trkpt>
<trkpt lat="31.8280910" lon="35.0202640">
<ele>315.000000</ele>
<time>2010-01-01T00:17:44.000Z</time>
</trkpt>
<trkpt lat="31.8280280" lon="35.0212950">
<ele>319.000000</ele>
<time>2010-01-01T00:18:07.000Z</time>
</trkpt>
<trkpt lat="31.8278780" lon="35.0220000">
<ele>323.999969</ele>
<time>2010-01-01T00:18:23.000Z</time>
</trkpt>
<trkpt lat="31.8277220" lon="35.0223490">
<ele>326.999969</ele>
<time>2010-01-01T00:18:32.000Z</time>
</trkpt>
<trkpt lat="31.8271120" lon="35.0231680">
<ele>337.000000</ele>
<time>2010-01-01T00:18:57.000Z</time>
</trkpt>
<trkpt lat="31.8270340" lon="35.0234800">
<ele>337.999969</ele>
<time>2010-01-01T00:19:04.000Z</time>
</trkpt>
<trkpt lat="31.8270460" lon="35.0237750">
<ele>337.000000</ele>
<time>2010-01-01T00:19:11.000Z</time>
</trkpt>
<trkpt lat="31.8271670" lon="35.0240140">
<ele>335.000031</ele>
<time>2010-01-01T00:19:17.000Z</time>
</trkpt>
<trkpt lat="31.8279020" lon="35.0249490">
<ele>341.000000</ele>
<time>2010-01-01T00:19:46.000Z</time>
</trkpt>
<trkpt lat="31.8284300" lon="35.0257940">
<ele>351.000000</ele>
<time>2010-01-01T00:20:10.000Z</time>
</trkpt>
<trkpt lat="31.8289940" lon="35.0264310">
<ele>359.000000</ele>
<time>2010-01-01T00:20:31.000Z</time>
</trkpt>
<trkpt lat="31.8290080" lon="35.0265400">
<ele>360.000031</ele>
<time>2010-01-01T00:20:33.000Z</time>
</trkpt>
<trkpt lat="31.8287550" lon="35.0268850">
<ele>356.000000</ele>
<time>2010-01-01T00:20:44.000Z</time>
</trkpt>
<trkpt lat="31.8288030" lon="35.0276650">
<ele>349.000031</ele>
<time>2010-01-01T00:21:02.000Z</time>
</trkpt>
<trkpt lat="31.8290620" lon="35.0281430">
<ele>344.000000</ele>
<time>2010-01-01T00:21:14.000Z</time>
</trkpt>
<trkpt lat="31.8295710" lon="35.0284950">
<ele>342.000000</ele>
<time>2010-01-01T00:21:30.000Z</time>
</trkpt>
<trkpt lat="31.8297050" lon="35.0286840">
<ele>340.000000</ele>
<time>2010-01-01T00:21:36.000Z</time>
</trkpt>
<trkpt lat="31.8297800" lon="35.0295390">
<ele>335.000031</ele>
<time>2010-01-01T00:21:55.000Z</time>
</trkpt>
<trkpt lat="31.8300980" lon="35.0300550">
<ele>331.000000</ele>
<time>2010-01-01T00:22:10.000Z</time>
</trkpt>
<trkpt lat="31.8299610" lon="35.0301720">
<ele>328.000000</ele>
<time>2010-01-01T00:22:14.000Z</time>
</trkpt>
<trkpt lat="31.8297340" lon="35.0306170">
<ele>319.000000</ele>
<time>2010-01-01T00:22:26.000Z</time>
</trkpt>
<trkpt lat="31.8295620" lon="35.0306920">
<ele>318.000000</ele>
<time>2010-01-01T00:22:31.000Z</time>
</trkpt>
<trkpt lat="31.8294770" lon="35.0306500">
<ele>317.000000</ele>
<time>2010-01-01T00:22:33.000Z</time>
</trkpt>
<trkpt lat="31.8294020" lon="35.0308330">
<ele>316.000000</ele>
<time>2010-01-01T00:22:38.000Z</time>
</trkpt>
<trkpt lat="31.8292410" lon="35.0308970">
<ele>314.000000</ele>
<time>2010-01-01T00:22:42.000Z</time>
</trkpt>
<trkpt lat="31.8286290" lon="35.0308710">
<ele>311.000000</ele>
<time>2010-01-01T00:22:59.000Z</time>
</trkpt>
<trkpt lat="31.8276470" lon="35.0310010">
<ele>306.000000</ele>
<time>2010-01-01T00:23:25.000Z</time>
</trkpt>
<trkpt lat="31.8274890" lon="35.0308800">
<ele>303.000000</ele>
<time>2010-01-01T00:23:30.000Z</time>
</trkpt>
<trkpt lat="31.8274250" lon="35.0309170">
<ele>303.000000</ele>
<time>2010-01-01T00:23:32.000Z</time>
</trkpt>
<trkpt lat="31.8274170" lon="35.0310580">
<ele>304.000000</ele>
<time>2010-01-01T00:23:35.000Z</time>
</trkpt>
<trkpt lat="31.8268380" lon="35.0310070">
<ele>301.000000</ele>
<time>2010-01-01T00:23:51.000Z</time>
</trkpt>
<trkpt lat="31.8263720" lon="35.0308670">
<ele>304.000000</ele>
<time>2010-01-01T00:24:04.000Z</time>
</trkpt>
<trkpt lat="31.8232600" lon="35.0272400">
<ele>292.000000</ele>
<time>2010-01-01T00:26:01.000Z</time>
</trkpt>
<trkpt lat="31.8221500" lon="35.0266370">
<ele>295.000000</ele>
<time>2010-01-01T00:26:33.000Z</time>
</trkpt>
<trkpt lat="31.8212730" lon="35.0262340">
<ele>301.000000</ele>
<time>2010-01-01T00:26:58.000Z</time>
</trkpt>
<trkpt lat="31.8206990" lon="35.0258510">
<ele>304.000000</ele>
<time>2010-01-01T00:27:16.000Z</time>
</trkpt>
<trkpt lat="31.8196570" lon="35.0254860">
<ele>301.000000</ele>
<time>2010-01-01T00:27:45.000Z</time>
</trkpt>
<trkpt lat="31.8194630" lon="35.0252310">
<ele>299.000000</ele>
<time>2010-01-01T00:27:53.000Z</time>
</trkpt>
<trkpt lat="31.8191840" lon="35.0245940">
<ele>293.000000</ele>
<time>2010-01-01T00:28:09.000Z</time>
</trkpt>
<trkpt lat="31.8190330" lon="35.0244380">
<ele>290.000000</ele>
<time>2010-01-01T00:28:14.000Z</time>
</trkpt>
<trkpt lat="31.8189410" lon="35.0244290">
<ele>289.000000</ele>
<time>2010-01-01T00:28:17.000Z</time>
</trkpt>
<trkpt lat="31.8187500" lon="35.0245300">
<ele>289.000000</ele>
<time>2010-01-01T00:28:22.000Z</time>
</trkpt>
<trkpt lat="31.8184080" lon="35.0249330">
<ele>291.000000</ele>
<time>2010-01-01T00:28:35.000Z</time>
</trkpt>
<trkpt lat="31.8182430" lon="35.0252760">
<ele>291.000000</ele>
<time>2010-01-01T00:28:44.000Z</time>
</trkpt>
<trkpt lat="31.8180830" lon="35.0260250">
<ele>294.000000</ele>
<time>2010-01-01T00:29:02.000Z</time>
</trkpt>
<trkpt lat="31.8180150" lon="35.0261200">
<ele>295.000000</ele>
<time>2010-01-01T00:29:05.000Z</time>
</trkpt>
<trkpt lat="31.8176980" lon="35.0262150">
<ele>296.000000</ele>
<time>2010-01-01T00:29:13.000Z</time>
</trkpt>
<trkpt lat="31.8176510" lon="35.0263120">
<ele>297.000000</ele>
<time>2010-01-01T00:29:16.000Z</time>
</trkpt>
<trkpt lat="31.8175510" lon="35.0271620">
<ele>300.000000</ele>
<time>2010-01-01T00:29:35.000Z</time>
</trkpt>
<trkpt lat="31.8175320" lon="35.0283370">
<ele>305.000000</ele>
<time>2010-01-01T00:30:02.000Z</time>
</trkpt>
<trkpt lat="31.8172970" lon="35.0293610">
<ele>308.000000</ele>
<time>2010-01-01T00:30:26.000Z</time>
</trkpt>
<trkpt lat="31.8172620" lon="35.0298690">
<ele>309.000000</ele>
<time>2010-01-01T00:30:38.000Z</time>
</trkpt>
<trkpt lat="31.8174780" lon="35.0306730">
<ele>311.000000</ele>
<time>2010-01-01T00:30:57.000Z</time>
</trkpt>
<trkpt lat="31.8178280" lon="35.0312770">
<ele>319.000000</ele>
<time>2010-01-01T00:31:13.000Z</time>
</trkpt>
<trkpt lat="31.8181070" lon="35.0320690">
<ele>321.000031</ele>
<time>2010-01-01T00:31:33.000Z</time>
</trkpt>
<trkpt lat="31.8182630" lon="35.0328820">
<ele>326.999969</ele>
<time>2010-01-01T00:31:52.000Z</time>
</trkpt>
<trkpt lat="31.8186600" lon="35.0335990">
<ele>331.000000</ele>
<time>2010-01-01T00:32:11.000Z</time>
</trkpt>
<trkpt lat="31.8188280" lon="35.0347170">
<ele>334.000000</ele>
<time>2010-01-01T00:32:37.000Z</time>
</trkpt>
<trkpt lat="31.8185040" lon="35.0355230">
<ele>337.000000</ele>
<time>2010-01-01T00:32:57.000Z</time>
</trkpt>
<trkpt lat="31.8184720" lon="35.0362620">
<ele>337.000000</ele>
<time>2010-01-01T00:33:14.000Z</time>
</trkpt>
<trkpt lat="31.8181380" lon="35.0373670">
<ele>344.000000</ele>
<time>2010-01-01T00:33:40.000Z</time>
</trkpt>
<trkpt lat="31.8179430" lon="35.0376930">
<ele>347.000000</ele>
<time>2010-01-01T00:33:49.000Z</time>
</trkpt>
<trkpt lat="31.8173680" lon="35.0382020">
<ele>351.999969</ele>
<time>2010-01-01T00:34:09.000Z</time>
</trkpt>
<trkpt lat="31.8170150" lon="35.0388210">
<ele>351.000000</ele>
<time>2010-01-01T00:34:25.000Z</time>
</trkpt>
<trkpt lat="31.8167680" lon="35.0395170">
<ele>357.000000</ele>
<time>2010-01-01T00:34:43.000Z</time>
</trkpt>
<trkpt lat="31.8160190" lon="35.0423460">
<ele>379.000000</ele>
<time>2010-01-01T00:35:50.000Z</time>
</trkpt>
<trkpt lat="31.8158740" lon="35.0426990">
<ele>382.000000</ele>
<time>2010-01-01T00:35:59.000Z</time>
</trkpt>
<trkpt lat="31.8155750" lon="35.0431820">
<ele>380.000000</ele>
<time>2010-01-01T00:36:12.000Z</time>
</trkpt>
<trkpt lat="31.8155610" lon="35.0435490">
<ele>382.000000</ele>
<time>2010-01-01T00:36:21.000Z</time>
</trkpt>
<trkpt lat="31.8156710" lon="35.0440720">
<ele>382.000000</ele>
<time>2010-01-01T00:36:33.000Z</time>
</trkpt>
<trkpt lat="31.8157060" lon="35.0447600">
<ele>387.999969</ele>
<time>2010-01-01T00:36:48.000Z</time>
</trkpt>
<trkpt lat="31.8158090" lon="35.0453690">
<ele>392.000000</ele>
<time>2010-01-01T00:37:02.000Z</time>
</trkpt>
<trkpt lat="31.8154530" lon="35.0466450">
<ele>389.000000</ele>
<time>2010-01-01T00:37:33.000Z</time>
</trkpt>
<trkpt lat="31.8153030" lon="35.0468910">
<ele>390.000000</ele>
<time>2010-01-01T00:37:40.000Z</time>
</trkpt>
<trkpt lat="31.8145510" lon="35.0474950">
<ele>397.000000</ele>
<time>2010-01-01T00:38:04.000Z</time>
</trkpt>
<trkpt lat="31.8137940" lon="35.0484060">
<ele>408.000000</ele>
<time>2010-01-01T00:38:33.000Z</time>
</trkpt>
<trkpt lat="31.8134610" lon="35.0486920">
<ele>410.000031</ele>
<time>2010-01-01T00:38:44.000Z</time>
</trkpt>
<trkpt lat="31.8131910" lon="35.0490290">
<ele>409.000000</ele>
<time>2010-01-01T00:38:54.000Z</time>
</trkpt>
<trkpt lat="31.8127130" lon="35.0500190">
<ele>415.999969</ele>
<time>2010-01-01T00:39:20.000Z</time>
</trkpt>
<trkpt lat="31.8125980" lon="35.0504760">
<ele>421.000000</ele>
<time>2010-01-01T00:39:31.000Z</time>
</trkpt>
<trkpt lat="31.8124790" lon="35.0521040">
<ele>426.000000</ele>
<time>2010-01-01T00:40:08.000Z</time>
</trkpt>
<trkpt lat="31.8125720" lon="35.0534070">
<ele>434.000000</ele>
<time>2010-01-01T00:40:38.000Z</time>
</trkpt>
<trkpt lat="31.8127260" lon="35.0537030">
<ele>437.000000</ele>
<time>2010-01-01T00:40:46.000Z</time>
</trkpt>
<trkpt lat="31.8131380" lon="35.0540140">
<ele>445.000000</ele>
<time>2010-01-01T00:40:59.000Z</time>
</trkpt>
<trkpt lat="31.8136340" lon="35.0549990">
<ele>450.000000</ele>
<time>2010-01-01T00:41:25.000Z</time>
</trkpt>
<trkpt lat="31.8139380" lon="35.0554580">
<ele>456.000000</ele>
<time>2010-01-01T00:41:38.000Z</time>
</trkpt>
<trkpt lat="31.8139400" lon="35.0555780">
<ele>456.000000</ele>
<time>2010-01-01T00:41:41.000Z</time>
</trkpt>
<trkpt lat="31.8137650" lon="35.0560340">
<ele>453.000000</ele>
<time>2010-01-01T00:41:52.000Z</time>
</trkpt>
<trkpt lat="31.8136810" lon="35.0569360">
<ele>455.000000</ele>
<time>2010-01-01T00:42:13.000Z</time>
</trkpt>
<trkpt lat="31.8138200" lon="35.0579640">
<ele>460.000000</ele>
<time>2010-01-01T00:42:36.000Z</time>
</trkpt>
<trkpt lat="31.8138120" lon="35.0590620">
<ele>465.999969</ele>
<time>2010-01-01T00:43:01.000Z</time>
</trkpt>
<trkpt lat="31.8136380" lon="35.0595040">
<ele>468.000000</ele>
<time>2010-01-01T00:43:12.000Z</time>
</trkpt>
<trkpt lat="31.8132860" lon="35.0599670">
<ele>468.000000</ele>
<time>2010-01-01T00:43:26.000Z</time>
</trkpt>
<trkpt lat="31.8130980" lon="35.0605330">
<ele>474.000031</ele>
<time>2010-01-01T00:43:40.000Z</time>
</trkpt>
<trkpt lat="31.8127710" lon="35.0609700">
<ele>476.000000</ele>
<time>2010-01-01T00:43:53.000Z</time>
</trkpt>
<trkpt lat="31.8122410" lon="35.0620130">
<ele>484.000000</ele>
<time>2010-01-01T00:44:21.000Z</time>
</trkpt>
<trkpt lat="31.8110570" lon="35.0630320">
<ele>490.999969</ele>
<time>2010-01-01T00:45:00.000Z</time>
</trkpt>
<trkpt lat="31.8107410" lon="35.0632220">
<ele>494.000000</ele>
<time>2010-01-01T00:45:09.000Z</time>
</trkpt>
<trkpt lat="31.8095860" lon="35.0648390">
<ele>501.000000</ele>
<time>2010-01-01T00:45:57.000Z</time>
</trkpt>
<trkpt lat="31.8088120" lon="35.0665750">
<ele>512.000000</ele>
<time>2010-01-01T00:46:42.000Z</time>
</trkpt>
<trkpt lat="31.8085540" lon="35.0669990">
<ele>513.000000</ele>
<time>2010-01-01T00:46:54.000Z</time>
</trkpt>
<trkpt lat="31.8082230" lon="35.0678540">
<ele>519.000000</ele>
<time>2010-01-01T00:47:15.000Z</time>
</trkpt>
<trkpt lat="31.8079330" lon="35.0682840">
<ele>524.000000</ele>
<time>2010-01-01T00:47:27.000Z</time>
</trkpt>
<trkpt lat="31.8078450" lon="35.0686620">
<ele>527.000000</ele>
<time>2010-01-01T00:47:36.000Z</time>
</trkpt>
<trkpt lat="31.8076210" lon="35.0690420">
<ele>527.000000</ele>
<time>2010-01-01T00:47:47.000Z</time>
</trkpt>
<trkpt lat="31.8073760" lon="35.0699880">
<ele>529.000000</ele>
<time>2010-01-01T00:48:09.000Z</time>
</trkpt>
<trkpt lat="31.8072120" lon="35.0703930">
<ele>529.000000</ele>
<time>2010-01-01T00:48:19.000Z</time>
</trkpt>
<trkpt lat="31.8065260" lon="35.0708490">
<ele>535.000000</ele>
<time>2010-01-01T00:48:40.000Z</time>
</trkpt>
<trkpt lat="31.8058340" lon="35.0718710">
<ele>540.000000</ele>
<time>2010-01-01T00:49:10.000Z</time>
</trkpt>
<trkpt lat="31.8052910" lon="35.0723880">
<ele>544.000000</ele>
<time>2010-01-01T00:49:29.000Z</time>
</trkpt>
<trkpt lat="31.8044570" lon="35.0730570">
<ele>550.000000</ele>
<time>2010-01-01T00:49:56.000Z</time>
</trkpt>
<trkpt lat="31.8043880" lon="35.0731780">
<ele>552.000000</ele>
<time>2010-01-01T00:49:59.000Z</time>
</trkpt>
<trkpt lat="31.8039380" lon="35.0735790">
<ele>554.000000</ele>
<time>2010-01-01T00:50:14.000Z</time>
</trkpt>
<trkpt lat="31.8037530" lon="35.0738610">
<ele>554.000000</ele>
<time>2010-01-01T00:50:22.000Z</time>
</trkpt>
<trkpt lat="31.8036400" lon="35.0743710">
<ele>557.000000</ele>
<time>2010-01-01T00:50:34.000Z</time>
</trkpt>
<trkpt lat="31.8037420" lon="35.0748720">
<ele>563.000000</ele>
<time>2010-01-01T00:50:46.000Z</time>
</trkpt>
<trkpt lat="31.8044280" lon="35.0768140">
<ele>569.000000</ele>
<time>2010-01-01T00:51:33.000Z</time>
</trkpt>
<trkpt lat="31.8050140" lon="35.0777050">
<ele>575.000000</ele>
<time>2010-01-01T00:51:59.000Z</time>
</trkpt>
<trkpt lat="31.8047680" lon="35.0784780">
<ele>584.000000</ele>
<time>2010-01-01T00:52:18.000Z</time>
</trkpt>
<trkpt lat="31.8047440" lon="35.0788190">
<ele>587.000000</ele>
<time>2010-01-01T00:52:25.000Z</time>
</trkpt>
<trkpt lat="31.8050540" lon="35.0787440">
<ele>584.000000</ele>
<time>2010-01-01T00:52:34.000Z</time>
</trkpt>
<trkpt lat="31.8055890" lon="35.0782180">
<ele>586.000000</ele>
<time>2010-01-01T00:52:52.000Z</time>
</trkpt>
<trkpt lat="31.8069180" lon="35.0781740">
<ele>609.000000</ele>
<time>2010-01-01T00:53:28.000Z</time>
</trkpt>
<trkpt lat="31.8075180" lon="35.0783220">
<ele>621.000000</ele>
<time>2010-01-01T00:53:44.000Z</time>
</trkpt>
<trkpt lat="31.8078670" lon="35.0787440">
<ele>631.000000</ele>
<time>2010-01-01T00:53:58.000Z</time>
</trkpt>
<trkpt lat="31.8079980" lon="35.0785910">
<ele>632.000000</ele>
<time>2010-01-01T00:54:03.000Z</time>
</trkpt>
<trkpt lat="31.8079320" lon="35.0779420">
<ele>634.000000</ele>
<time>2010-01-01T00:54:17.000Z</time>
</trkpt>
<trkpt lat="31.8078370" lon="35.0777390">
<ele>633.000000</ele>
<time>2010-01-01T00:54:23.000Z</time>
</trkpt>
<trkpt lat="31.8069030" lon="35.0773540">
<ele>622.000000</ele>
<time>2010-01-01T00:54:49.000Z</time>
</trkpt>
<trkpt lat="31.8063580" lon="35.0768810">
<ele>620.000000</ele>
<time>2010-01-01T00:55:07.000Z</time>
</trkpt>
<trkpt lat="31.8055680" lon="35.0755480">
<ele>610.000000</ele>
<time>2010-01-01T00:55:44.000Z</time>
</trkpt>
<trkpt lat="31.8054580" lon="35.0752030">
<ele>609.000000</ele>
<time>2010-01-01T00:55:52.000Z</time>
</trkpt>
<trkpt lat="31.8054820" lon="35.0749750">
<ele>609.000000</ele>
<time>2010-01-01T00:55:57.000Z</time>
</trkpt>
<trkpt lat="31.8055600" lon="35.0747540">
<ele>609.000000</ele>
<time>2010-01-01T00:56:03.000Z</time>
</trkpt>
<trkpt lat="31.8057130" lon="35.0746200">
<ele>609.000000</ele>
<time>2010-01-01T00:56:08.000Z</time>
</trkpt>
<trkpt lat="31.8065260" lon="35.0744210">
<ele>612.000000</ele>
<time>2010-01-01T00:56:30.000Z</time>
</trkpt>
<trkpt lat="31.8067030" lon="35.0743210">
<ele>611.000000</ele>
<time>2010-01-01T00:56:35.000Z</time>
</trkpt>
<trkpt lat="31.8069950" lon="35.0740240">
<ele>610.000000</ele>
<time>2010-01-01T00:56:46.000Z</time>
</trkpt>
<trkpt lat="31.8075670" lon="35.0732530">
<ele>602.000000</ele>
<time>2010-01-01T00:57:09.000Z</time>
</trkpt>
<trkpt lat="31.8078510" lon="35.0730650">
<ele>601.000000</ele>
<time>2010-01-01T00:57:18.000Z</time>
</trkpt>
<trkpt lat="31.8089510" lon="35.0732960">
<ele>607.000000</ele>
<time>2010-01-01T00:57:47.000Z</time>
</trkpt>
<trkpt lat="31.8093610" lon="35.0731550">
<ele>607.000000</ele>
<time>2010-01-01T00:57:59.000Z</time>
</trkpt>
<trkpt lat="31.8096060" lon="35.0727620">
<ele>607.000000</ele>
<time>2010-01-01T00:58:10.000Z</time>
</trkpt>
<trkpt lat="31.8096950" lon="35.0727040">
<ele>609.000000</ele>
<time>2010-01-01T00:58:13.000Z</time>
</trkpt>
<trkpt lat="31.8098400" lon="35.0728700">
<ele>612.000000</ele>
<time>2010-01-01T00:58:18.000Z</time>
</trkpt>
<trkpt lat="31.8099520" lon="35.0732480">
<ele>615.000000</ele>
<time>2010-01-01T00:58:27.000Z</time>
</trkpt>
<trkpt lat="31.8100960" lon="35.0733800">
<ele>615.000000</ele>
<time>2010-01-01T00:58:32.000Z</time>
</trkpt>
<trkpt lat="31.8094000" lon="35.0719560">
<ele>603.000000</ele>
<time>2010-01-01T00:59:09.000Z</time>
</trkpt>
<trkpt lat="31.8092170" lon="35.0713680">
<ele>599.000000</ele>
<time>2010-01-01T00:59:23.000Z</time>
</trkpt>
<trkpt lat="31.8090880" lon="35.0702470">
<ele>596.000000</ele>
<time>2010-01-01T00:59:49.000Z</time>
</trkpt>
<trkpt lat="31.8092630" lon="35.0693280">
<ele>589.000000</ele>
<time>2010-01-01T01:00:10.000Z</time>
</trkpt>
<trkpt lat="31.8100340" lon="35.0676860">
<ele>580.000000</ele>
<time>2010-01-01T01:00:53.000Z</time>
</trkpt>
<trkpt lat="31.8107370" lon="35.0659360">
<ele>563.000000</ele>
<time>2010-01-01T01:01:37.000Z</time>
</trkpt>
<trkpt lat="31.8115610" lon="35.0644190">
<ele>551.000000</ele>
<time>2010-01-01T01:02:18.000Z</time>
</trkpt>
<trkpt lat="31.8117620" lon="35.0641780">
<ele>546.000000</ele>
<time>2010-01-01T01:02:25.000Z</time>
</trkpt>
<trkpt lat="31.8120990" lon="35.0639220">
<ele>543.000000</ele>
<time>2010-01-01T01:02:36.000Z</time>
</trkpt>
<trkpt lat="31.8124790" lon="35.0637840">
<ele>540.000000</ele>
<time>2010-01-01T01:02:47.000Z</time>
</trkpt>
<trkpt lat="31.8129480" lon="35.0637200">
<ele>540.000000</ele>
<time>2010-01-01T01:02:59.000Z</time>
</trkpt>
<trkpt lat="31.8132390" lon="35.0626190">
<ele>527.000000</ele>
<time>2010-01-01T01:03:25.000Z</time>
</trkpt>
<trkpt lat="31.8141150" lon="35.0609880">
<ele>513.000000</ele>
<time>2010-01-01T01:04:09.000Z</time>
</trkpt>
<trkpt lat="31.8143570" lon="35.0606550">
<ele>511.000000</ele>
<time>2010-01-01T01:04:19.000Z</time>
</trkpt>
<trkpt lat="31.8149260" lon="35.0603510">
<ele>514.000000</ele>
<time>2010-01-01T01:04:36.000Z</time>
</trkpt>
<trkpt lat="31.8151160" lon="35.0600760">
<ele>514.000000</ele>
<time>2010-01-01T01:04:44.000Z</time>
</trkpt>
<trkpt lat="31.8151840" lon="35.0597280">
<ele>514.000000</ele>
<time>2010-01-01T01:04:52.000Z</time>
</trkpt>
<trkpt lat="31.8151680" lon="35.0584860">
<ele>510.000000</ele>
<time>2010-01-01T01:05:20.000Z</time>
</trkpt>
<trkpt lat="31.8152950" lon="35.0582990">
<ele>511.000000</ele>
<time>2010-01-01T01:05:26.000Z</time>
</trkpt>
<trkpt lat="31.8157180" lon="35.0580100">
<ele>513.000000</ele>
<time>2010-01-01T01:05:39.000Z</time>
</trkpt>
<trkpt lat="31.8158230" lon="35.0576960">
<ele>510.000000</ele>
<time>2010-01-01T01:05:46.000Z</time>
</trkpt>
<trkpt lat="31.8156920" lon="35.0566920">
<ele>510.000000</ele>
<time>2010-01-01T01:06:09.000Z</time>
</trkpt>
<trkpt lat="31.8158040" lon="35.0561490">
<ele>512.000000</ele>
<time>2010-01-01T01:06:22.000Z</time>
</trkpt>
<trkpt lat="31.8157560" lon="35.0554450">
<ele>517.000000</ele>
<time>2010-01-01T01:06:38.000Z</time>
</trkpt>
<trkpt lat="31.8154640" lon="35.0547270">
<ele>521.000000</ele>
<time>2010-01-01T01:06:56.000Z</time>
</trkpt>
<trkpt lat="31.8154530" lon="35.0544590">
<ele>524.000000</ele>
<time>2010-01-01T01:07:02.000Z</time>
</trkpt>
<trkpt lat="31.8155160" lon="35.0543740">
<ele>527.000000</ele>
<time>2010-01-01T01:07:05.000Z</time>
</trkpt>
<trkpt lat="31.8156080" lon="35.0543670">
<ele>528.000000</ele>
<time>2010-01-01T01:07:07.000Z</time>
</trkpt>
<trkpt lat="31.8158950" lon="35.0544900">
<ele>530.000000</ele>
<time>2010-01-01T01:07:15.000Z</time>
</trkpt>
<trkpt lat="31.8159780" lon="35.0544490">
<ele>531.000000</ele>
<time>2010-01-01T01:07:18.000Z</time>
</trkpt>
<trkpt lat="31.8164030" lon="35.0535570">
<ele>532.000000</ele>
<time>2010-01-01T01:07:41.000Z</time>
</trkpt>
<trkpt lat="31.8164580" lon="35.0531100">
<ele>529.000000</ele>
<time>2010-01-01T01:07:51.000Z</time>
</trkpt>
<trkpt lat="31.8169190" lon="35.0520320">
<ele>515.000000</ele>
<time>2010-01-01T01:08:18.000Z</time>
</trkpt>
<trkpt lat="31.8172300" lon="35.0516040">
<ele>508.000000</ele>
<time>2010-01-01T01:08:31.000Z</time>
</trkpt>
<trkpt lat="31.8174180" lon="35.0512070">
<ele>504.999969</ele>
<time>2010-01-01T01:08:42.000Z</time>
</trkpt>
<trkpt lat="31.8175660" lon="35.0506590">
<ele>501.999969</ele>
<time>2010-01-01T01:08:55.000Z</time>
</trkpt>
<trkpt lat="31.8175750" lon="35.0500960">
<ele>495.000000</ele>
<time>2010-01-01T01:09:07.000Z</time>
</trkpt>
<trkpt lat="31.8177980" lon="35.0491060">
<ele>488.000031</ele>
<time>2010-01-01T01:09:31.000Z</time>
</trkpt>
<trkpt lat="31.8179950" lon="35.0486110">
<ele>484.000000</ele>
<time>2010-01-01T01:09:43.000Z</time>
</trkpt>
<trkpt lat="31.8183040" lon="35.0473350">
<ele>475.000000</ele>
<time>2010-01-01T01:10:13.000Z</time>
</trkpt>
<trkpt lat="31.8188190" lon="35.0461410">
<ele>470.000000</ele>
<time>2010-01-01T01:10:43.000Z</time>
</trkpt>
<trkpt lat="31.8187750" lon="35.0456610">
<ele>469.000000</ele>
<time>2010-01-01T01:10:54.000Z</time>
</trkpt>
<trkpt lat="31.8189730" lon="35.0451030">
<ele>470.000000</ele>
<time>2010-01-01T01:11:08.000Z</time>
</trkpt>
<trkpt lat="31.8189170" lon="35.0446340">
<ele>469.000000</ele>
<time>2010-01-01T01:11:19.000Z</time>
</trkpt>
<trkpt lat="31.8190260" lon="35.0438000">
<ele>465.000000</ele>
<time>2010-01-01T01:11:38.000Z</time>
</trkpt>
<trkpt lat="31.8193110" lon="35.0439640">
<ele>467.000000</ele>
<time>2010-01-01T01:11:46.000Z</time>
</trkpt>
<trkpt lat="31.8197270" lon="35.0440520">
<ele>471.000000</ele>
<time>2010-01-01T01:11:58.000Z</time>
</trkpt>
<trkpt lat="31.8199260" lon="35.0441530">
<ele>474.000031</ele>
<time>2010-01-01T01:12:03.000Z</time>
</trkpt>
<trkpt lat="31.8200090" lon="35.0441240">
<ele>474.000031</ele>
<time>2010-01-01T01:12:06.000Z</time>
</trkpt>
<trkpt lat="31.8200830" lon="35.0439060">
<ele>473.000000</ele>
<time>2010-01-01T01:12:11.000Z</time>
</trkpt>
<trkpt lat="31.8203010" lon="35.0436670">
<ele>470.000000</ele>
<time>2010-01-01T01:12:19.000Z</time>
</trkpt>
<trkpt lat="31.8206880" lon="35.0435850">
<ele>470.000000</ele>
<time>2010-01-01T01:12:30.000Z</time>
</trkpt>
<trkpt lat="31.8211150" lon="35.0436690">
<ele>472.000000</ele>
<time>2010-01-01T01:12:41.000Z</time>
</trkpt>
<trkpt lat="31.8214190" lon="35.0439430">
<ele>471.000000</ele>
<time>2010-01-01T01:12:51.000Z</time>
</trkpt>
<trkpt lat="31.8217630" lon="35.0441160">
<ele>469.000000</ele>
<time>2010-01-01T01:13:01.000Z</time>
</trkpt>
<trkpt lat="31.8222250" lon="35.0441040">
<ele>457.000000</ele>
<time>2010-01-01T01:13:14.000Z</time>
</trkpt>
<trkpt lat="31.8224590" lon="35.0439100">
<ele>451.999969</ele>
<time>2010-01-01T01:13:21.000Z</time>
</trkpt>
<trkpt lat="31.8232780" lon="35.0425810">
<ele>440.000000</ele>
<time>2010-01-01T01:13:58.000Z</time>
</trkpt>
<trkpt lat="31.8238310" lon="35.0421660">
<ele>433.000000</ele>
<time>2010-01-01T01:14:16.000Z</time>
</trkpt>
<trkpt lat="31.8240970" lon="35.0420570">
<ele>429.000000</ele>
<time>2010-01-01T01:14:24.000Z</time>
</trkpt>
<trkpt lat="31.8246620" lon="35.0419620">
<ele>418.000000</ele>
<time>2010-01-01T01:14:39.000Z</time>
</trkpt>
<trkpt lat="31.8257220" lon="35.0420850">
<ele>405.000000</ele>
<time>2010-01-01T01:15:07.000Z</time>
</trkpt>
<trkpt lat="31.8262500" lon="35.0416610">
<ele>398.000000</ele>
<time>2010-01-01T01:15:24.000Z</time>
</trkpt>
<trkpt lat="31.8263500" lon="35.0411080">
<ele>392.000000</ele>
<time>2010-01-01T01:15:37.000Z</time>
</trkpt>
<trkpt lat="31.8266130" lon="35.0407940">
<ele>386.000000</ele>
<time>2010-01-01T01:15:47.000Z</time>
</trkpt>
<trkpt lat="31.8266090" lon="35.0406870">
<ele>384.000000</ele>
<time>2010-01-01T01:15:49.000Z</time>
</trkpt>
<trkpt lat="31.8263280" lon="35.0403310">
<ele>382.000000</ele>
<time>2010-01-01T01:16:00.000Z</time>
</trkpt>
<trkpt lat="31.8257100" lon="35.0400150">
<ele>384.000000</ele>
<time>2010-01-01T01:16:18.000Z</time>
</trkpt>
<trkpt lat="31.8257470" lon="35.0399080">
<ele>382.000000</ele>
<time>2010-01-01T01:16:21.000Z</time>
</trkpt>
<trkpt lat="31.8260620" lon="35.0396340">
<ele>376.999969</ele>
<time>2010-01-01T01:16:32.000Z</time>
</trkpt>
<trkpt lat="31.8265520" lon="35.0394670">
<ele>375.000000</ele>
<time>2010-01-01T01:16:45.000Z</time>
</trkpt>
<trkpt lat="31.8268520" lon="35.0395410">
<ele>375.000000</ele>
<time>2010-01-01T01:16:53.000Z</time>
</trkpt>
<trkpt lat="31.8270070" lon="35.0394090">
<ele>374.000031</ele>
<time>2010-01-01T01:16:58.000Z</time>
</trkpt>
<trkpt lat="31.8271950" lon="35.0394260">
<ele>373.000000</ele>
<time>2010-01-01T01:17:03.000Z</time>
</trkpt>
<trkpt lat="31.8273480" lon="35.0393080">
<ele>372.000000</ele>
<time>2010-01-01T01:17:08.000Z</time>
</trkpt>
<trkpt lat="31.8274200" lon="35.0388530">
<ele>371.000000</ele>
<time>2010-01-01T01:17:19.000Z</time>
</trkpt>
<trkpt lat="31.8274890" lon="35.0387600">
<ele>370.000000</ele>
<time>2010-01-01T01:17:22.000Z</time>
</trkpt>
<trkpt lat="31.8277820" lon="35.0387100">
<ele>362.999969</ele>
<time>2010-01-01T01:17:30.000Z</time>
</trkpt>
<trkpt lat="31.8279000" lon="35.0385650">
<ele>361.000000</ele>
<time>2010-01-01T01:17:34.000Z</time>
</trkpt>
<trkpt lat="31.8279080" lon="35.0381310">
<ele>358.000000</ele>
<time>2010-01-01T01:17:44.000Z</time>
</trkpt>
<trkpt lat="31.8276170" lon="35.0374330">
<ele>347.000000</ele>
<time>2010-01-01T01:18:02.000Z</time>
</trkpt>
<trkpt lat="31.8273020" lon="35.0369900">
<ele>340.000000</ele>
<time>2010-01-01T01:18:15.000Z</time>
</trkpt>
<trkpt lat="31.8268110" lon="35.0366030">
<ele>335.000031</ele>
<time>2010-01-01T01:18:30.000Z</time>
</trkpt>
<trkpt lat="31.8266740" lon="35.0362840">
<ele>329.000000</ele>
<time>2010-01-01T01:18:39.000Z</time>
</trkpt>
<trkpt lat="31.8267810" lon="35.0355890">
<ele>323.999969</ele>
<time>2010-01-01T01:18:55.000Z</time>
</trkpt>
<trkpt lat="31.8268030" lon="35.0349770">
<ele>320.000000</ele>
<time>2010-01-01T01:19:08.000Z</time>
</trkpt>
<trkpt lat="31.8272120" lon="35.0339810">
<ele>318.000000</ele>
<time>2010-01-01T01:19:34.000Z</time>
</trkpt>
<trkpt lat="31.8273370" lon="35.0333060">
<ele>315.000000</ele>
<time>2010-01-01T01:19:49.000Z</time>
</trkpt>
<trkpt lat="31.8273500" lon="35.0327080">
<ele>311.000000</ele>
<time>2010-01-01T01:20:03.000Z</time>
</trkpt>
<trkpt lat="31.8271660" lon="35.0309940">
<ele>301.000000</ele>
<time>2010-01-01T01:20:42.000Z</time>
</trkpt>
<trkpt lat="31.8274090" lon="35.0309770">
<ele>303.000000</ele>
<time>2010-01-01T01:20:48.000Z</time>
</trkpt>
<trkpt lat="31.8273640" lon="35.0308830">
<ele>302.000000</ele>
<time>2010-01-01T01:20:51.000Z</time>
</trkpt>
<trkpt lat="31.8274190" lon="35.0308130">
<ele>302.000000</ele>
<time>2010-01-01T01:20:53.000Z</time>
</trkpt>
<trkpt lat="31.8278000" lon="35.0309020">
<ele>307.000000</ele>
<time>2010-01-01T01:21:03.000Z</time>
</trkpt>
<trkpt lat="31.8287370" lon="35.0308250">
<ele>311.000000</ele>
<time>2010-01-01T01:21:28.000Z</time>
</trkpt>
<trkpt lat="31.8292450" lon="35.0308810">
<ele>314.000000</ele>
<time>2010-01-01T01:21:42.000Z</time>
</trkpt>
<trkpt lat="31.8293280" lon="35.0308380">
<ele>315.000000</ele>
<time>2010-01-01T01:21:45.000Z</time>
</trkpt>
<trkpt lat="31.8294280" lon="35.0306590">
<ele>316.000000</ele>
<time>2010-01-01T01:21:49.000Z</time>
</trkpt>
<trkpt lat="31.8296310" lon="35.0306230">
<ele>318.000000</ele>
<time>2010-01-01T01:21:55.000Z</time>
</trkpt>
<trkpt lat="31.8297150" lon="35.0305530">
<ele>319.000000</ele>
<time>2010-01-01T01:21:58.000Z</time>
</trkpt>
<trkpt lat="31.8299580" lon="35.0300930">
<ele>329.000000</ele>
<time>2010-01-01T01:22:10.000Z</time>
</trkpt>
<trkpt lat="31.8301180" lon="35.0299840">
<ele>333.000000</ele>
<time>2010-01-01T01:22:15.000Z</time>
</trkpt>
<trkpt lat="31.8307070" lon="35.0303620">
<ele>332.000000</ele>
<time>2010-01-01T01:22:33.000Z</time>
</trkpt>
<trkpt lat="31.8309060" lon="35.0305870">
<ele>331.000000</ele>
<time>2010-01-01T01:22:40.000Z</time>
</trkpt>
<trkpt lat="31.8310520" lon="35.0309020">
<ele>330.000000</ele>
<time>2010-01-01T01:22:48.000Z</time>
</trkpt>
<trkpt lat="31.8312010" lon="35.0314700">
<ele>329.000000</ele>
<time>2010-01-01T01:23:02.000Z</time>
</trkpt>
<trkpt lat="31.8311690" lon="35.0316910">
<ele>328.000000</ele>
<time>2010-01-01T01:23:07.000Z</time>
</trkpt>
<trkpt lat="31.8309840" lon="35.0321380">
<ele>329.000000</ele>
<time>2010-01-01T01:23:18.000Z</time>
</trkpt>
<trkpt lat="31.8310110" lon="35.0320700">
<ele>328.000000</ele>
<time>2010-01-01T01:23:20.000Z</time>
</trkpt>
<trkpt lat="31.8311670" lon="35.0322130">
<ele>330.000000</ele>
<time>2010-01-01T01:23:25.000Z</time>
</trkpt>
<trkpt lat="31.8315730" lon="35.0324300">
<ele>335.000031</ele>
<time>2010-01-01T01:23:37.000Z</time>
</trkpt>
<trkpt lat="31.8319150" lon="35.0327700">
<ele>339.000000</ele>
<time>2010-01-01T01:23:49.000Z</time>
</trkpt>
<trkpt lat="31.8324950" lon="35.0341460">
<ele>353.000000</ele>
<time>2010-01-01T01:24:24.000Z</time>
</trkpt>
<trkpt lat="31.8327870" lon="35.0346020">
<ele>350.000000</ele>
<time>2010-01-01T01:24:37.000Z</time>
</trkpt>
<trkpt lat="31.8329850" lon="35.0346290">
<ele>347.000000</ele>
<time>2010-01-01T01:24:42.000Z</time>
</trkpt>
<trkpt lat="31.8334190" lon="35.0344050">
<ele>342.000000</ele>
<time>2010-01-01T01:24:55.000Z</time>
</trkpt>
<trkpt lat="31.8337060" lon="35.0343990">
<ele>341.000000</ele>
<time>2010-01-01T01:25:02.000Z</time>
</trkpt>
<trkpt lat="31.8347290" lon="35.0347710">
<ele>331.000000</ele>
<time>2010-01-01T01:25:31.000Z</time>
</trkpt>
<trkpt lat="31.8363480" lon="35.0352370">
<ele>318.000000</ele>
<time>2010-01-01T01:26:15.000Z</time>
</trkpt>
<trkpt lat="31.8381530" lon="35.0352420">
<ele>295.000000</ele>
<time>2010-01-01T01:27:04.000Z</time>
</trkpt>
<trkpt lat="31.8382890" lon="35.0351080">
<ele>294.000000</ele>
<time>2010-01-01T01:27:08.000Z</time>
</trkpt>
<trkpt lat="31.8384270" lon="35.0347150">
<ele>290.000000</ele>
<time>2010-01-01T01:27:18.000Z</time>
</trkpt>
<trkpt lat="31.8385090" lon="35.0335650">
<ele>282.000000</ele>
<time>2010-01-01T01:27:44.000Z</time>
</trkpt>
<trkpt lat="31.8386220" lon="35.0332260">
<ele>284.000000</ele>
<time>2010-01-01T01:27:52.000Z</time>
</trkpt>
<trkpt lat="31.8388550" lon="35.0330600">
<ele>285.000000</ele>
<time>2010-01-01T01:28:00.000Z</time>
</trkpt>
<trkpt lat="31.8397690" lon="35.0328280">
<ele>279.000000</ele>
<time>2010-01-01T01:28:25.000Z</time>
</trkpt>
<trkpt lat="31.8393850" lon="35.0310552">
<ele>306.000000</ele>
<time>2010-01-01T01:29:06.000Z</time>
</trkpt>
<trkpt lat="31.8394351" lon="35.0302988">
<ele>303.000000</ele>
<time>2010-01-01T01:29:23.000Z</time>
</trkpt>
<trkpt lat="31.8391753" lon="35.0294780">
<ele>317.000000</ele>
<time>2010-01-01T01:29:43.000Z</time>
</trkpt>
<trkpt lat="31.8389201" lon="35.0289416">
<ele>323.000000</ele>
<time>2010-01-01T01:29:57.000Z</time>
</trkpt>
<trkpt lat="31.8392483" lon="35.0277453">
<ele>321.000031</ele>
<time>2010-01-01T01:30:25.000Z</time>
</trkpt>
<trkpt lat="31.8396311" lon="35.0274610">
<ele>316.000000</ele>
<time>2010-01-01T01:30:38.000Z</time>
</trkpt>
<trkpt lat="31.8399273" lon="35.0271177">
<ele>318.000000</ele>
<time>2010-01-01T01:30:49.000Z</time>
</trkpt>
<trkpt lat="31.8398635" lon="35.0268119">
<ele>318.000000</ele>
<time>2010-01-01T01:30:56.000Z</time>
</trkpt>
<trkpt lat="31.8399592" lon="35.0266671">
<ele>317.000000</ele>
<time>2010-01-01T01:31:00.000Z</time>
</trkpt>
<trkpt lat="31.8401005" lon="35.0266510">
<ele>316.000000</ele>
<time>2010-01-01T01:31:04.000Z</time>
</trkpt>
<trkpt lat="31.8403648" lon="35.0261735">
<ele>305.000000</ele>
<time>2010-01-01T01:31:17.000Z</time>
</trkpt>
<trkpt lat="31.8406245" lon="35.0264096">
<ele>305.000000</ele>
<time>2010-01-01T01:31:25.000Z</time>
</trkpt>
<trkpt lat="31.8408843" lon="35.0262701">
<ele>296.000000</ele>
<time>2010-01-01T01:31:33.000Z</time>
</trkpt>
<trkpt lat="31.8411030" lon="35.0264257">
<ele>290.000000</ele>
<time>2010-01-01T01:31:40.000Z</time>
</trkpt>
<trkpt lat="31.8414631" lon="35.0262862">
<ele>278.000000</ele>
<time>2010-01-01T01:31:50.000Z</time>
</trkpt>
<trkpt lat="31.8414357" lon="35.0257766">
<ele>273.000000</ele>
<time>2010-01-01T01:32:02.000Z</time>
</trkpt>
<trkpt lat="31.8405379" lon="35.0251650">
<ele>273.000000</ele>
<time>2010-01-01T01:32:29.000Z</time>
</trkpt>
<trkpt lat="31.8403010" lon="35.0248200">
<ele>271.000000</ele>
<time>2010-01-01T01:32:39.000Z</time>
</trkpt>
<trkpt lat="31.8401520" lon="35.0242050">
<ele>277.000000</ele>
<time>2010-01-01T01:32:54.000Z</time>
</trkpt>
<trkpt lat="31.8401650" lon="35.0239650">
<ele>281.000000</ele>
<time>2010-01-01T01:32:59.000Z</time>
</trkpt>
<trkpt lat="31.8403500" lon="35.0237750">
<ele>283.000000</ele>
<time>2010-01-01T01:33:06.000Z</time>
</trkpt>
<trkpt lat="31.8405700" lon="35.0236880">
<ele>284.000000</ele>
<time>2010-01-01T01:33:12.000Z</time>
</trkpt>
<trkpt lat="31.8406410" lon="35.0235950">
<ele>286.000000</ele>
<time>2010-01-01T01:33:15.000Z</time>
</trkpt>
<trkpt lat="31.8406840" lon="35.0233490">
<ele>288.000000</ele>
<time>2010-01-01T01:33:21.000Z</time>
</trkpt>
<trkpt lat="31.8406400" lon="35.0231280">
<ele>288.000000</ele>
<time>2010-01-01T01:33:26.000Z</time>
</trkpt>
<trkpt lat="31.8403210" lon="35.0226230">
<ele>290.000000</ele>
<time>2010-01-01T01:33:40.000Z</time>
</trkpt>
<trkpt lat="31.8402500" lon="35.0224000">
<ele>291.000000</ele>
<time>2010-01-01T01:33:45.000Z</time>
</trkpt>
<trkpt lat="31.8392400" lon="35.0223400">
<ele>304.000000</ele>
<time>2010-01-01T01:34:12.000Z</time>
</trkpt>
<trkpt lat="31.8391200" lon="35.0226400">
<ele>306.000000</ele>
<time>2010-01-01T01:34:20.000Z</time>
</trkpt>
<trkpt lat="31.8385800" lon="35.0233200">
<ele>310.000000</ele>
<time>2010-01-01T01:34:41.000Z</time>
</trkpt>
<trkpt lat="31.8383100" lon="35.0233700">
<ele>312.999969</ele>
<time>2010-01-01T01:34:48.000Z</time>
</trkpt>
<trkpt lat="31.8381300" lon="35.0233400">
<ele>315.000000</ele>
<time>2010-01-01T01:34:53.000Z</time>
</trkpt>
<trkpt lat="31.8379700" lon="35.0232400">
<ele>317.000000</ele>
<time>2010-01-01T01:34:58.000Z</time>
</trkpt>
<trkpt lat="31.8378900" lon="35.0229600">
<ele>318.000000</ele>
<time>2010-01-01T01:35:05.000Z</time>
</trkpt>
<trkpt lat="31.8379100" lon="35.0228300">
<ele>318.000000</ele>
<time>2010-01-01T01:35:08.000Z</time>
</trkpt>
<trkpt lat="31.8382300" lon="35.0223100">
<ele>316.000000</ele>
<time>2010-01-01T01:35:22.000Z</time>
</trkpt>
<trkpt lat="31.8382700" lon="35.0210700">
<ele>323.999969</ele>
<time>2010-01-01T01:35:50.000Z</time>
</trkpt>
<trkpt lat="31.8383800" lon="35.0207000">
<ele>328.000000</ele>
<time>2010-01-01T01:35:59.000Z</time>
</trkpt>
<trkpt lat="31.8387300" lon="35.0201500">
<ele>329.000000</ele>
<time>2010-01-01T01:36:15.000Z</time>
</trkpt>
<trkpt lat="31.8387600" lon="35.0199800">
<ele>331.000000</ele>
<time>2010-01-01T01:36:19.000Z</time>
</trkpt>
<trkpt lat="31.8387100" lon="35.0198200">
<ele>332.000000</ele>
<time>2010-01-01T01:36:23.000Z</time>
</trkpt>
<trkpt lat="31.8382300" lon="35.0200200">
<ele>337.000000</ele>
<time>2010-01-01T01:36:36.000Z</time>
</trkpt>
<trkpt lat="31.8365100" lon="35.0210900">
<ele>357.000000</ele>
<time>2010-01-01T01:37:28.000Z</time>
</trkpt>
<trkpt lat="31.8363700" lon="35.0210400">
<ele>361.000000</ele>
<time>2010-01-01T01:37:32.000Z</time>
</trkpt>
<trkpt lat="31.8363700" lon="35.0200100">
<ele>367.000000</ele>
<time>2010-01-01T01:37:55.000Z</time>
</trkpt>
<trkpt lat="31.8364600" lon="35.0192900">
<ele>373.000000</ele>
<time>2010-01-01T01:38:12.000Z</time>
</trkpt>
<trkpt lat="31.8365500" lon="35.0190200">
<ele>374.000031</ele>
<time>2010-01-01T01:38:18.000Z</time>
</trkpt>
<trkpt lat="31.8373800" lon="35.0179200">
<ele>375.000000</ele>
<time>2010-01-01T01:38:52.000Z</time>
</trkpt>
<trkpt lat="31.8380500" lon="35.0172000">
<ele>372.000000</ele>
<time>2010-01-01T01:39:16.000Z</time>
</trkpt>
<trkpt lat="31.8383600" lon="35.0167700">
<ele>373.000000</ele>
<time>2010-01-01T01:39:29.000Z</time>
</trkpt>
<trkpt lat="31.8384300" lon="35.0165400">
<ele>373.000000</ele>
<time>2010-01-01T01:39:34.000Z</time>
</trkpt>
<trkpt lat="31.8383800" lon="35.0161800">
<ele>374.000031</ele>
<time>2010-01-01T01:39:43.000Z</time>
</trkpt>
<trkpt lat="31.8381200" lon="35.0158700">
<ele>376.000000</ele>
<time>2010-01-01T01:39:52.000Z</time>
</trkpt>
<trkpt lat="31.8384900" lon="35.0154200">
<ele>376.000000</ele>
<time>2010-01-01T01:40:07.000Z</time>
</trkpt>
<trkpt lat="31.8386800" lon="35.0148700">
<ele>376.000000</ele>
<time>2010-01-01T01:40:20.000Z</time>
</trkpt>
<trkpt lat="31.8390300" lon="35.0141700">
<ele>378.000000</ele>
<time>2010-01-01T01:40:39.000Z</time>
</trkpt>
<trkpt lat="31.8392300" lon="35.0134400">
<ele>380.000000</ele>
<time>2010-01-01T01:40:56.000Z</time>
</trkpt>
<trkpt lat="31.8395500" lon="35.0128200">
<ele>383.000000</ele>
<time>2010-01-01T01:41:12.000Z</time>
</trkpt>
<trkpt lat="31.8399400" lon="35.0106500">
<ele>379.000000</ele>
<time>2010-01-01T01:42:03.000Z</time>
</trkpt>
<trkpt lat="31.8403600" lon="35.0099600">
<ele>382.000000</ele>
<time>2010-01-01T01:42:22.000Z</time>
</trkpt>
<trkpt lat="31.8405300" lon="35.0098300">
<ele>382.000000</ele>
<time>2010-01-01T01:42:27.000Z</time>
</trkpt>
<trkpt lat="31.8411000" lon="35.0100000">
<ele>378.000000</ele>
<time>2010-01-01T01:42:43.000Z</time>
</trkpt>
<trkpt lat="31.8415900" lon="35.0098700">
<ele>374.000031</ele>
<time>2010-01-01T01:42:56.000Z</time>
</trkpt>
<trkpt lat="31.8418000" lon="35.0095800">
<ele>372.000000</ele>
<time>2010-01-01T01:43:05.000Z</time>
</trkpt>
<trkpt lat="31.8422500" lon="35.0092700">
<ele>366.000000</ele>
<time>2010-01-01T01:43:19.000Z</time>
</trkpt>
<trkpt lat="31.8425100" lon="35.0089000">
<ele>361.000000</ele>
<time>2010-01-01T01:43:30.000Z</time>
</trkpt>
<trkpt lat="31.8426000" lon="35.0085500">
<ele>358.000000</ele>
<time>2010-01-01T01:43:38.000Z</time>
</trkpt>
<trkpt lat="31.8426000" lon="35.0082400">
<ele>356.000000</ele>
<time>2010-01-01T01:43:45.000Z</time>
</trkpt>
<trkpt lat="31.8426800" lon="35.0080300">
<ele>355.000000</ele>
<time>2010-01-01T01:43:50.000Z</time>
</trkpt>
<trkpt lat="31.8434900" lon="35.0079400">
<ele>346.000031</ele>
<time>2010-01-01T01:44:12.000Z</time>
</trkpt>
<trkpt lat="31.8436600" lon="35.0076400">
<ele>342.000000</ele>
<time>2010-01-01T01:44:20.000Z</time>
</trkpt>
<trkpt lat="31.8439300" lon="35.0074300">
<ele>337.999969</ele>
<time>2010-01-01T01:44:29.000Z</time>
</trkpt>
<trkpt lat="31.8440300" lon="35.0072400">
<ele>336.000000</ele>
<time>2010-01-01T01:44:34.000Z</time>
</trkpt>
<trkpt lat="31.8443700" lon="35.0070300">
<ele>332.000000</ele>
<time>2010-01-01T01:44:44.000Z</time>
</trkpt>
<trkpt lat="31.8448400" lon="35.0060400">
<ele>325.000000</ele>
<time>2010-01-01T01:45:10.000Z</time>
</trkpt>
<trkpt lat="31.8446500" lon="35.0059700">
<ele>325.000000</ele>
<time>2010-01-01T01:45:15.000Z</time>
</trkpt>
<trkpt lat="31.8440700" lon="35.0055600">
<ele>323.000000</ele>
<time>2010-01-01T01:45:33.000Z</time>
</trkpt>
<trkpt lat="31.8438000" lon="35.0053200">
<ele>323.999969</ele>
<time>2010-01-01T01:45:42.000Z</time>
</trkpt>
<trkpt lat="31.8436300" lon="35.0050500">
<ele>321.000031</ele>
<time>2010-01-01T01:45:50.000Z</time>
</trkpt>
<trkpt lat="31.8435200" lon="35.0043700">
<ele>316.000000</ele>
<time>2010-01-01T01:46:06.000Z</time>
</trkpt>
<trkpt lat="31.8437000" lon="35.0038400">
<ele>309.000000</ele>
<time>2010-01-01T01:46:19.000Z</time>
</trkpt>
<trkpt lat="31.8440000" lon="35.0033900">
<ele>306.000000</ele>
<time>2010-01-01T01:46:32.000Z</time>
</trkpt>
<trkpt lat="31.8440100" lon="35.0032400">
<ele>306.000000</ele>
<time>2010-01-01T01:46:35.000Z</time>
</trkpt>
<trkpt lat="31.8439000" lon="35.0030700">
<ele>305.000000</ele>
<time>2010-01-01T01:46:40.000Z</time>
</trkpt>
<trkpt lat="31.8437500" lon="35.0030200">
<ele>303.000000</ele>
<time>2010-01-01T01:46:44.000Z</time>
</trkpt>
<trkpt lat="31.8434200" lon="35.0031700">
<ele>303.000000</ele>
<time>2010-01-01T01:46:53.000Z</time>
</trkpt>
<trkpt lat="31.8432400" lon="35.0031400">
<ele>302.000000</ele>
<time>2010-01-01T01:46:58.000Z</time>
</trkpt>
<trkpt lat="31.8433100" lon="35.0026400">
<ele>299.000000</ele>
<time>2010-01-01T01:47:10.000Z</time>
</trkpt>
<trkpt lat="31.8430500" lon="35.0021500">
<ele>296.000000</ele>
<time>2010-01-01T01:47:23.000Z</time>
</trkpt>
<trkpt lat="31.8435300" lon="35.0016800">
<ele>293.000000</ele>
<time>2010-01-01T01:47:39.000Z</time>
</trkpt>
<trkpt lat="31.8439800" lon="35.0014000">
<ele>288.000000</ele>
<time>2010-01-01T01:47:53.000Z</time>
</trkpt>
<trkpt lat="31.8440800" lon="35.0012700">
<ele>287.000000</ele>
<time>2010-01-01T01:47:57.000Z</time>
</trkpt>
<trkpt lat="31.8443000" lon="35.0007700">
<ele>283.000000</ele>
<time>2010-01-01T01:48:10.000Z</time>
</trkpt>
<trkpt lat="31.8446200" lon="34.9996800">
<ele>271.000000</ele>
<time>2010-01-01T01:48:36.000Z</time>
</trkpt>
<trkpt lat="31.8452400" lon="34.9990800">
<ele>272.000000</ele>
<time>2010-01-01T01:48:57.000Z</time>
</trkpt>
<trkpt lat="31.8452800" lon="34.9985700">
<ele>267.000000</ele>
<time>2010-01-01T01:49:09.000Z</time>
</trkpt>
<trkpt lat="31.8458300" lon="34.9977500">
<ele>258.000000</ele>
<time>2010-01-01T01:49:33.000Z</time>
</trkpt>
<trkpt lat="31.8455100" lon="34.9973700">
<ele>255.000000</ele>
<time>2010-01-01T01:49:45.000Z</time>
</trkpt>
<trkpt lat="31.8450800" lon="34.9970500">
<ele>247.000000</ele>
<time>2010-01-01T01:49:58.000Z</time>
</trkpt>
<trkpt lat="31.8448300" lon="34.9971500">
<ele>245.000000</ele>
<time>2010-01-01T01:50:05.000Z</time>
</trkpt>
<trkpt lat="31.8446800" lon="34.9972900">
<ele>245.000000</ele>
<time>2010-01-01T01:50:11.000Z</time>
</trkpt>
<trkpt lat="31.8445200" lon="34.9970200">
<ele>242.000000</ele>
<time>2010-01-01T01:50:18.000Z</time>
</trkpt>
<trkpt lat="31.8440400" lon="34.9966700">
<ele>232.999985</ele>
<time>2010-01-01T01:50:33.000Z</time>
</trkpt>
<trkpt lat="31.8430500" lon="34.9960800">
<ele>225.000000</ele>
<time>2010-01-01T01:51:03.000Z</time>
</trkpt>
<trkpt lat="31.8428700" lon="34.9957900">
<ele>225.000000</ele>
<time>2010-01-01T01:51:11.000Z</time>
</trkpt>
<trkpt lat="31.8427800" lon="34.9955100">
<ele>223.000000</ele>
<time>2010-01-01T01:51:18.000Z</time>
</trkpt>
<trkpt lat="31.8426200" lon="34.9946500">
<ele>228.000000</ele>
<time>2010-01-01T01:51:38.000Z</time>
</trkpt>
<trkpt lat="31.8426000" lon="34.9942900">
<ele>229.000000</ele>
<time>2010-01-01T01:51:46.000Z</time>
</trkpt>
<trkpt lat="31.8427400" lon="34.9937500">
<ele>230.000000</ele>
<time>2010-01-01T01:51:59.000Z</time>
</trkpt>
<trkpt lat="31.8425600" lon="34.9935400">
<ele>235.000000</ele>
<time>2010-01-01T01:52:05.000Z</time>
</trkpt>
<trkpt lat="31.8422700" lon="34.9935200">
<ele>242.000000</ele>
<time>2010-01-01T01:52:13.000Z</time>
</trkpt>
<trkpt lat="31.8420100" lon="34.9935900">
<ele>244.000015</ele>
<time>2010-01-01T01:52:20.000Z</time>
</trkpt>
<trkpt lat="31.8418800" lon="34.9935400">
<ele>246.000000</ele>
<time>2010-01-01T01:52:24.000Z</time>
</trkpt>
<trkpt lat="31.8419600" lon="34.9934700">
<ele>245.000000</ele>
<time>2010-01-01T01:52:26.000Z</time>
</trkpt>
</trkseg>
</trk>
</gpx>
